createdAt,value
2023-02-17T00:01:33.313Z,4.80
2023-02-17T00:04:00.926Z,4.74
2023-02-17T00:06:30.670Z,4.77
2023-02-17T00:08:59.977Z,4.79
2023-02-17T00:11:28.446Z,4.91
2023-02-17T00:13:56.602Z,4.94
2023-02-17T00:16:28.047Z,4.88
2023-02-17T00:19:00.399Z,4.77
2023-02-17T00:21:31.742Z,4.88
2023-02-17T00:23:59.930Z,4.81
2023-02-17T00:26:27.505Z,4.74
2023-02-17T00:28:54.762Z,4.76
2023-02-17T00:31:23.783Z,4.81
2023-02-17T00:33:56.166Z,4.80
2023-02-17T00:36:25.506Z,4.80
2023-02-17T00:38:57.764Z,4.66
2023-02-17T00:41:28.951Z,4.51
2023-02-17T00:43:58.658Z,4.48
2023-02-17T00:46:26.994Z,4.45
2023-02-17T00:48:54.725Z,4.44
2023-02-17T00:51:22.182Z,4.43
2023-02-17T00:53:50.056Z,4.41
2023-02-17T00:56:17.804Z,4.39
2023-02-17T00:58:46.202Z,4.44
2023-02-17T01:01:13.973Z,4.33
2023-02-17T01:03:42.147Z,4.27
2023-02-17T01:06:21.805Z,4.22
2023-02-17T01:08:49.074Z,4.20
2023-02-17T01:11:24.185Z,4.22
2023-02-17T01:13:52.340Z,4.22
2023-02-17T01:16:25.035Z,4.29
2023-02-17T01:18:53.211Z,4.21
2023-02-17T01:21:28.010Z,4.17
2023-02-17T01:24:00.430Z,4.12
2023-02-17T01:26:32.816Z,4.10
2023-02-17T01:29:03.857Z,4.07
2023-02-17T01:31:31.156Z,4.04
2023-02-17T01:34:01.188Z,3.97
2023-02-17T01:36:29.160Z,3.89
2023-02-17T01:38:56.356Z,3.82
2023-02-17T01:41:27.087Z,3.72
2023-02-17T01:44:20.643Z,3.73
2023-02-17T01:46:51.937Z,3.76
2023-02-17T01:49:39.710Z,3.69
2023-02-17T01:52:17.561Z,3.60
2023-02-17T01:54:57.818Z,3.68
2023-02-17T01:57:33.097Z,3.65
2023-02-17T02:00:00.682Z,3.52
2023-02-17T02:02:32.039Z,3.44
2023-02-17T02:05:00.600Z,3.46
2023-02-17T02:07:34.719Z,3.49
2023-02-17T02:10:03.178Z,3.56
2023-02-17T02:12:35.659Z,3.55
2023-02-17T02:15:10.110Z,3.48
2023-02-17T02:18:06.518Z,3.40
2023-02-17T02:20:52.441Z,3.44
2023-02-17T02:23:41.299Z,3.44
2023-02-17T02:27:14.588Z,3.49
2023-02-17T02:30:23.980Z,3.56
2023-02-17T02:33:26.357Z,3.58
2023-02-17T02:36:20.144Z,3.47
2023-02-17T02:39:10.330Z,3.43
2023-02-17T02:41:48.575Z,3.36
2023-02-17T02:44:21.067Z,3.33
2023-02-17T02:47:06.817Z,3.32
2023-02-17T02:49:36.732Z,3.33
2023-02-17T02:52:33.636Z,3.31
2023-02-17T02:55:37.822Z,3.27
2023-02-17T02:58:39.194Z,3.29
2023-02-17T03:01:36.174Z,3.24
2023-02-17T03:04:36.154Z,3.21
2023-02-17T03:07:21.254Z,3.22
2023-02-17T03:09:58.577Z,3.20
2023-02-17T03:12:29.077Z,3.19
2023-02-17T03:15:30.840Z,3.27
2023-02-17T03:18:02.900Z,3.31
2023-02-17T03:20:40.185Z,3.23
2023-02-17T03:23:07.991Z,3.15
2023-02-17T03:25:35.906Z,3.11
2023-02-17T03:28:04.411Z,3.17
2023-02-17T03:30:31.676Z,3.14
2023-02-17T03:32:58.925Z,3.10
2023-02-17T03:35:26.073Z,3.08
2023-02-17T03:37:53.285Z,3.07
2023-02-17T03:40:20.626Z,3.07
2023-02-17T03:42:47.967Z,3.03
2023-02-17T03:45:15.206Z,2.99
2023-02-17T03:47:42.330Z,2.96
2023-02-17T03:50:10.094Z,3.03
2023-02-17T03:52:37.400Z,3.02
2023-02-17T03:55:05.151Z,2.95
2023-02-17T03:57:34.699Z,2.89
2023-02-17T04:00:02.050Z,2.92
2023-02-17T04:02:29.486Z,2.89
2023-02-17T04:04:56.740Z,2.87
2023-02-17T04:07:23.964Z,2.92
2023-02-17T04:09:51.144Z,2.90
2023-02-17T04:12:18.513Z,2.81
2023-02-17T04:14:45.683Z,2.74
2023-02-17T04:17:12.922Z,2.66
2023-02-17T04:19:40.289Z,2.74
2023-02-17T04:22:08.942Z,2.74
2023-02-17T04:24:37.264Z,2.73
2023-02-17T04:27:05.886Z,2.71
2023-02-17T04:29:33.721Z,2.73
2023-02-17T04:32:01.201Z,2.79
2023-02-17T04:34:28.631Z,2.77
2023-02-17T04:36:55.932Z,2.79
2023-02-17T04:39:23.080Z,2.66
2023-02-17T04:41:50.256Z,2.56
2023-02-17T04:44:17.405Z,2.57
2023-02-17T04:46:44.583Z,2.52
2023-02-17T04:49:11.844Z,2.46
2023-02-17T04:51:38.968Z,2.48
2023-02-17T04:54:06.117Z,2.36
2023-02-17T04:56:33.342Z,2.33
2023-02-17T04:59:00.527Z,2.24
2023-02-17T05:01:27.846Z,2.21
2023-02-17T05:03:54.961Z,2.33
2023-02-17T05:06:22.107Z,2.32
2023-02-17T05:08:50.579Z,2.53
2023-02-17T05:11:17.796Z,2.67
2023-02-17T05:13:45.046Z,2.51
2023-02-17T05:16:12.218Z,2.37
2023-02-17T05:18:39.461Z,2.36
2023-02-17T05:21:06.809Z,2.27
2023-02-17T05:23:41.125Z,2.31
2023-02-17T05:26:09.637Z,2.22
2023-02-17T05:28:37.303Z,2.24
2023-02-17T05:31:05.054Z,2.05
2023-02-17T05:33:32.855Z,1.98
2023-02-17T05:36:07.814Z,1.93
2023-02-17T05:38:36.630Z,1.94
2023-02-17T05:41:04.464Z,1.96
2023-02-17T05:43:32.631Z,1.91
2023-02-17T05:46:04.424Z,1.95
2023-02-17T05:48:32.324Z,2.05
2023-02-17T05:51:00.232Z,2.09
2023-02-17T05:53:27.959Z,1.98
2023-02-17T05:55:55.328Z,1.97
2023-02-17T05:58:22.643Z,2.03
2023-02-17T06:00:50.073Z,1.96
2023-02-17T06:03:17.976Z,2.00
2023-02-17T06:05:45.916Z,2.23
2023-02-17T06:08:13.070Z,2.24
2023-02-17T06:10:42.168Z,2.31
2023-02-17T06:13:09.566Z,2.19
2023-02-17T06:15:36.882Z,2.41
2023-02-17T06:18:04.274Z,2.28
2023-02-17T06:20:31.519Z,2.65
2023-02-17T06:22:58.818Z,2.65
2023-02-17T06:25:25.929Z,2.57
2023-02-17T06:27:54.259Z,2.55
2023-02-17T06:30:21.909Z,2.42
2023-02-17T06:32:49.054Z,2.32
2023-02-17T06:35:16.941Z,2.30
2023-02-17T06:37:44.513Z,2.31
2023-02-17T06:40:12.735Z,2.28
2023-02-17T06:42:39.865Z,2.22
2023-02-17T06:45:07.956Z,2.20
2023-02-17T06:47:35.835Z,2.22
2023-02-17T06:50:03.381Z,2.28
2023-02-17T06:52:30.607Z,2.27
2023-02-17T06:54:57.808Z,2.28
2023-02-17T06:57:24.982Z,2.30
2023-02-17T06:59:52.156Z,2.28
2023-02-17T07:02:19.447Z,2.28
2023-02-17T07:04:46.716Z,2.34
2023-02-17T07:07:14.201Z,2.41
2023-02-17T07:09:41.437Z,2.51
2023-02-17T07:12:08.672Z,2.60
2023-02-17T07:14:36.346Z,2.65
2023-02-17T07:17:03.646Z,2.74
2023-02-17T07:19:31.079Z,2.84
2023-02-17T07:21:58.477Z,2.96
2023-02-17T07:24:26.225Z,3.01
2023-02-17T07:26:55.948Z,3.05
2023-02-17T07:29:23.820Z,3.12
2023-02-17T07:31:51.074Z,3.19
2023-02-17T07:34:18.776Z,3.28
2023-02-17T07:36:45.910Z,3.40
2023-02-17T07:39:13.086Z,3.51
2023-02-17T07:41:40.286Z,3.57
2023-02-17T07:44:10.582Z,3.65
2023-02-17T07:46:39.800Z,3.77
2023-02-17T07:49:06.963Z,3.87
2023-02-17T07:51:34.280Z,4.01
2023-02-17T07:54:02.561Z,4.10
2023-02-17T07:56:30.061Z,4.20
2023-02-17T07:58:57.204Z,4.29
2023-02-17T08:01:26.058Z,4.36
2023-02-17T08:03:53.947Z,4.43
2023-02-17T08:06:24.880Z,4.51
2023-02-17T08:09:12.481Z,4.60
2023-02-17T08:11:59.885Z,4.70
2023-02-17T08:14:31.214Z,4.89
2023-02-17T08:16:59.110Z,4.95
2023-02-17T08:19:31.747Z,4.97
2023-02-17T08:22:06.815Z,5.02
2023-02-17T08:24:33.952Z,5.11
2023-02-17T08:27:01.121Z,5.21
2023-02-17T08:29:28.316Z,5.29
2023-02-17T08:31:55.506Z,5.35
2023-02-17T08:34:22.755Z,5.46
2023-02-17T08:36:50.107Z,5.56
2023-02-17T08:39:18.480Z,5.65
2023-02-17T08:41:46.572Z,5.75
2023-02-17T08:44:18.784Z,5.89
2023-02-17T08:46:48.189Z,6.02
2023-02-17T08:49:25.974Z,6.10
2023-02-17T08:51:53.652Z,6.18
2023-02-17T08:54:20.837Z,6.27
2023-02-17T08:56:48.034Z,6.39
2023-02-17T08:59:15.404Z,6.64
2023-02-17T09:01:43.544Z,6.91
2023-02-17T09:04:14.544Z,6.94
2023-02-17T09:06:52.486Z,6.90
2023-02-17T09:09:26.923Z,7.01
2023-02-17T09:11:57.806Z,7.15
2023-02-17T09:14:25.898Z,7.44
2023-02-17T09:16:55.168Z,7.57
2023-02-17T09:19:23.820Z,7.61
2023-02-17T09:21:51.060Z,7.74
2023-02-17T09:24:19.204Z,7.84
2023-02-17T09:26:46.560Z,7.96
2023-02-17T09:29:13.741Z,8.04
2023-02-17T09:31:41.315Z,8.08
2023-02-17T09:34:08.676Z,8.26
2023-02-17T09:36:42.063Z,8.36
2023-02-17T09:39:12.312Z,8.57
2023-02-17T09:41:52.306Z,8.67
2023-02-17T09:44:27.636Z,8.72
2023-02-17T09:47:11.132Z,8.94
2023-02-17T09:49:45.019Z,9.00
2023-02-17T09:52:27.980Z,9.04
2023-02-17T09:55:15.220Z,9.13
2023-02-17T09:58:18.809Z,9.40
2023-02-17T10:00:53.486Z,9.48
2023-02-17T10:03:41.665Z,9.49
2023-02-17T10:06:38.333Z,9.52
2023-02-17T10:09:25.624Z,9.62
2023-02-17T10:12:24.506Z,9.80
2023-02-17T10:15:17.978Z,10.14
2023-02-17T10:17:59.261Z,10.05
2023-02-17T10:20:36.946Z,10.16
2023-02-17T10:23:27.014Z,10.34
2023-02-17T10:26:09.152Z,10.30
2023-02-17T10:29:44.231Z,10.59
2023-02-17T10:32:41.706Z,10.54
2023-02-17T10:35:47.443Z,10.81
2023-02-17T10:38:42.595Z,10.95
2023-02-17T10:41:16.144Z,11.13
2023-02-17T10:43:44.784Z,11.13
2023-02-17T10:46:15.947Z,12.82
2023-02-17T10:48:53.582Z,14.29
2023-02-17T10:51:28.683Z,16.09
2023-02-17T10:54:25.865Z,14.89
2023-02-17T10:56:58.236Z,17.54
2023-02-17T10:59:39.141Z,17.94
2023-02-17T11:02:40.281Z,14.14
2023-02-17T11:05:09.065Z,14.94
2023-02-17T11:07:41.892Z,18.79
2023-02-17T11:10:24.318Z,16.54
2023-02-17T11:12:52.264Z,19.70
2023-02-17T11:15:24.781Z,21.19
2023-02-17T11:17:53.237Z,20.97
2023-02-17T11:20:20.360Z,20.26
2023-02-17T11:23:04.891Z,18.32
2023-02-17T11:25:37.589Z,18.65
2023-02-17T11:28:14.028Z,17.61
2023-02-17T11:30:53.736Z,18.38
2023-02-17T11:33:34.049Z,19.75
2023-02-17T11:36:02.964Z,19.55
2023-02-17T11:38:45.843Z,18.86
2023-02-17T11:41:13.664Z,17.94
2023-02-17T11:43:59.187Z,16.44
2023-02-17T11:46:47.461Z,15.69
2023-02-17T11:49:32.056Z,15.76
2023-02-17T11:52:27.370Z,14.42
2023-02-17T11:55:46.291Z,14.30
2023-02-17T11:58:33.810Z,13.79
2023-02-17T12:01:41.063Z,13.39
2023-02-17T12:04:38.411Z,13.29
2023-02-17T12:07:47.626Z,13.03
2023-02-17T12:10:46.416Z,13.17
2023-02-17T12:13:28.570Z,13.19
2023-02-17T12:16:46.041Z,13.26
2023-02-17T12:20:09.368Z,13.45
2023-02-17T12:23:28.632Z,13.45
2023-02-17T12:26:29.910Z,13.77
2023-02-17T12:29:57.577Z,13.65
2023-02-17T12:33:33.818Z,13.44
2023-02-17T12:36:14.786Z,13.60
2023-02-17T12:38:54.559Z,13.81
2023-02-17T12:41:36.782Z,13.77
2023-02-17T12:44:23.018Z,13.91
2023-02-17T12:46:57.704Z,13.81
2023-02-17T12:49:42.913Z,13.87
2023-02-17T12:52:36.584Z,14.03
2023-02-17T12:55:25.038Z,14.15
2023-02-17T12:58:12.352Z,14.22
2023-02-17T13:01:00.004Z,13.98
2023-02-17T13:03:34.695Z,14.08
2023-02-17T13:06:43.080Z,14.08
2023-02-17T13:09:41.098Z,14.13
2023-02-17T13:12:28.396Z,14.01
2023-02-17T13:14:59.112Z,13.65
2023-02-17T13:17:38.468Z,13.74
2023-02-17T13:20:11.997Z,13.93
2023-02-17T13:22:42.258Z,13.80
2023-02-17T13:25:32.097Z,13.86
2023-02-17T13:28:01.793Z,14.14
2023-02-17T13:30:43.033Z,14.15
2023-02-17T13:33:47.969Z,13.93
2023-02-17T13:36:22.345Z,13.95
2023-02-17T13:39:29.526Z,14.00
2023-02-17T13:42:01.102Z,14.19
2023-02-17T13:44:41.798Z,14.20
2023-02-17T13:47:36.534Z,14.20
2023-02-17T13:50:06.524Z,14.20
2023-02-17T13:52:33.960Z,14.22
2023-02-17T13:55:06.078Z,14.17
2023-02-17T13:57:37.599Z,13.89
2023-02-17T14:00:18.296Z,13.57
2023-02-17T14:02:59.647Z,13.96
2023-02-17T14:05:33.153Z,14.16
2023-02-17T14:08:08.223Z,14.32
2023-02-17T14:10:36.676Z,14.37
2023-02-17T14:13:04.443Z,14.00
2023-02-17T14:15:31.762Z,14.16
2023-02-17T14:17:58.928Z,14.09
2023-02-17T14:20:36.304Z,14.03
2023-02-17T14:23:13.374Z,14.10
2023-02-17T14:25:47.521Z,14.42
2023-02-17T14:28:21.104Z,14.48
2023-02-17T14:30:48.948Z,14.44
2023-02-17T14:33:25.719Z,14.41
2023-02-17T14:36:07.808Z,14.59
2023-02-17T14:38:41.078Z,14.22
2023-02-17T14:41:09.607Z,14.40
2023-02-17T14:43:37.413Z,14.39
2023-02-17T14:46:05.536Z,14.39
2023-02-17T14:48:33.053Z,14.21
2023-02-17T14:51:00.345Z,14.28
2023-02-17T14:53:35.364Z,14.22
2023-02-17T14:56:36.840Z,14.23
2023-02-17T14:59:04.912Z,14.41
2023-02-17T15:01:32.195Z,14.40
2023-02-17T15:03:59.423Z,13.93
2023-02-17T15:06:38.928Z,14.32
2023-02-17T15:09:17.851Z,14.38
2023-02-17T15:11:46.361Z,14.46
2023-02-17T15:14:20.361Z,14.82
2023-02-17T15:16:48.761Z,14.96
2023-02-17T15:19:18.030Z,15.49
2023-02-17T15:21:50.582Z,15.94
2023-02-17T15:24:25.699Z,16.53
2023-02-17T15:26:55.792Z,17.08
2023-02-17T15:29:25.181Z,17.31
2023-02-17T15:31:54.730Z,17.94
2023-02-17T15:34:30.791Z,18.05
2023-02-17T15:37:00.747Z,18.41
2023-02-17T15:39:28.589Z,18.63
2023-02-17T15:42:06.075Z,18.33
2023-02-17T15:44:50.571Z,18.28
2023-02-17T15:47:20.461Z,18.00
2023-02-17T15:49:48.041Z,18.51
2023-02-17T15:52:16.003Z,18.50
2023-02-17T15:54:43.870Z,18.48
2023-02-17T15:57:31.350Z,18.07
2023-02-17T15:59:58.842Z,18.09
2023-02-17T16:02:26.200Z,17.59
2023-02-17T16:04:53.392Z,17.42
2023-02-17T16:07:20.567Z,17.74
2023-02-17T16:09:47.802Z,17.76
2023-02-17T16:12:26.537Z,17.30
2023-02-17T16:14:56.033Z,16.76
2023-02-17T16:17:23.848Z,16.21
2023-02-17T16:19:51.415Z,15.83
2023-02-17T16:22:18.697Z,15.70
2023-02-17T16:24:45.952Z,15.52
2023-02-17T16:27:16.839Z,15.20
2023-02-17T16:29:44.340Z,14.69
2023-02-17T16:32:13.727Z,14.39
2023-02-17T16:34:41.830Z,14.07
2023-02-17T16:37:16.383Z,13.78
2023-02-17T16:39:44.370Z,13.58
2023-02-17T16:42:14.680Z,13.52
2023-02-17T16:44:42.519Z,13.43
2023-02-17T16:47:20.964Z,13.20
2023-02-17T16:49:48.753Z,13.05
2023-02-17T16:52:26.812Z,12.92
2023-02-17T16:54:55.022Z,12.64
2023-02-17T16:57:22.793Z,12.50
2023-02-17T16:59:50.115Z,12.49
2023-02-17T17:02:17.348Z,12.44
2023-02-17T17:04:44.677Z,12.33
2023-02-17T17:07:15.973Z,12.17
2023-02-17T17:09:48.768Z,12.07
2023-02-17T17:12:23.463Z,11.80
2023-02-17T17:14:50.691Z,11.54
2023-02-17T17:17:17.831Z,11.36
2023-02-17T17:19:45.950Z,11.19
2023-02-17T17:22:13.051Z,10.98
2023-02-17T17:24:40.244Z,10.74
2023-02-17T17:27:07.484Z,10.64
2023-02-17T17:29:34.649Z,10.61
2023-02-17T17:32:02.015Z,10.55
2023-02-17T17:34:29.508Z,10.49
2023-02-17T17:36:57.269Z,10.44
2023-02-17T17:39:25.183Z,10.35
2023-02-17T17:41:52.496Z,10.31
2023-02-17T17:44:20.556Z,10.20
2023-02-17T17:46:47.763Z,10.11
2023-02-17T17:49:18.090Z,10.04
2023-02-17T17:51:45.435Z,9.98
2023-02-17T17:54:12.646Z,9.92
2023-02-17T17:56:43.127Z,9.86
2023-02-17T17:59:12.964Z,9.95
2023-02-17T18:01:40.565Z,10.06
2023-02-17T18:04:09.313Z,10.39
2023-02-17T18:06:51.661Z,10.60
2023-02-17T18:09:32.059Z,10.60
2023-02-17T18:12:08.692Z,10.60
2023-02-17T18:14:39.300Z,10.61
2023-02-17T18:17:10.267Z,10.50
2023-02-17T18:19:38.456Z,10.58
2023-02-17T18:22:05.768Z,10.67
2023-02-17T18:24:33.033Z,10.86
2023-02-17T18:27:00.203Z,10.66
2023-02-17T18:29:27.857Z,10.80
2023-02-17T18:31:55.169Z,10.77
2023-02-17T18:34:22.412Z,10.87
2023-02-17T18:36:49.626Z,10.80
2023-02-17T18:39:16.754Z,10.84
2023-02-17T18:41:44.288Z,10.69
2023-02-17T18:44:13.596Z,10.88
2023-02-17T18:46:41.604Z,10.84
2023-02-17T18:49:09.572Z,10.71
2023-02-17T18:51:37.107Z,10.94
2023-02-17T18:54:05.171Z,10.79
2023-02-17T18:56:33.869Z,10.74
2023-02-17T18:59:02.026Z,10.61
2023-02-17T19:01:36.220Z,10.53
2023-02-17T19:04:04.859Z,10.63
2023-02-17T19:06:34.765Z,10.61
2023-02-17T19:09:04.462Z,10.54
2023-02-17T19:11:33.861Z,10.29
2023-02-17T19:14:03.375Z,10.18
2023-02-17T19:16:32.541Z,10.18
2023-02-17T19:19:00.720Z,10.35
2023-02-17T19:21:28.113Z,10.40
2023-02-17T19:23:55.873Z,10.34
2023-02-17T19:26:23.325Z,10.30
2023-02-17T19:28:50.479Z,10.19
2023-02-17T19:31:20.758Z,10.17
2023-02-17T19:33:48.215Z,10.14
2023-02-17T19:36:20.707Z,10.05
2023-02-17T19:38:49.769Z,9.85
2023-02-17T19:41:19.119Z,9.73
2023-02-17T19:43:46.503Z,9.62
2023-02-17T19:46:16.449Z,9.51
2023-02-17T19:48:43.760Z,9.38
2023-02-17T19:51:15.256Z,9.27
2023-02-17T19:53:43.957Z,9.21
2023-02-17T19:56:23.144Z,9.17
2023-02-17T19:58:51.546Z,9.13
2023-02-17T20:01:27.495Z,9.03
2023-02-17T20:03:56.236Z,8.96
2023-02-17T20:06:44.858Z,8.95
2023-02-17T20:09:19.887Z,8.90
2023-02-17T20:11:52.234Z,8.77
2023-02-17T20:14:20.679Z,8.66
2023-02-17T20:16:53.146Z,8.58
2023-02-17T20:19:20.369Z,8.51
2023-02-17T20:21:47.579Z,8.46
2023-02-17T20:24:15.320Z,8.46
2023-02-17T20:26:47.399Z,8.40
2023-02-17T20:29:15.314Z,8.34
2023-02-17T20:31:43.389Z,8.27
2023-02-17T20:34:39.209Z,8.19
2023-02-17T20:37:08.500Z,8.21
2023-02-17T20:39:36.292Z,8.18
2023-02-17T20:42:04.145Z,8.02
2023-02-17T20:44:31.478Z,7.89
2023-02-17T20:46:59.082Z,7.80
2023-02-17T20:49:27.044Z,7.77
2023-02-17T20:51:54.903Z,7.67
2023-02-17T20:54:24.658Z,7.66
2023-02-17T20:56:52.368Z,7.56
2023-02-17T20:59:20.518Z,7.51
2023-02-17T21:01:48.400Z,7.54
2023-02-17T21:04:15.667Z,7.45
2023-02-17T21:06:43.219Z,7.39
2023-02-17T21:09:17.903Z,7.39
2023-02-17T21:11:46.755Z,7.33
2023-02-17T21:14:14.195Z,7.21
2023-02-17T21:16:41.584Z,7.13
2023-02-17T21:19:08.991Z,7.08
2023-02-17T21:21:36.406Z,7.14
2023-02-17T21:24:04.746Z,7.13
2023-02-17T21:26:33.510Z,7.11
2023-02-17T21:29:00.856Z,7.12
2023-02-17T21:31:31.157Z,7.15
2023-02-17T21:33:59.817Z,7.08
2023-02-17T21:36:29.177Z,7.18
2023-02-17T21:38:57.168Z,7.14
2023-02-17T21:41:27.549Z,7.24
2023-02-17T21:44:14.126Z,7.27
2023-02-17T21:46:43.174Z,7.33
2023-02-17T21:49:11.998Z,7.36
2023-02-17T21:51:40.744Z,7.33
2023-02-17T21:54:09.577Z,7.36
2023-02-17T21:56:37.007Z,7.40
2023-02-17T21:59:05.401Z,7.38
2023-02-17T22:01:32.947Z,7.48
2023-02-17T22:04:00.393Z,7.45
2023-02-17T22:06:37.136Z,7.58
2023-02-17T22:09:07.920Z,7.50
2023-02-17T22:11:42.001Z,7.43
2023-02-17T22:14:16.624Z,7.32
2023-02-17T22:16:44.285Z,7.28
2023-02-17T22:19:22.800Z,7.23
2023-02-17T22:21:51.633Z,7.15
2023-02-17T22:24:20.742Z,7.05
2023-02-17T22:26:49.786Z,6.94
2023-02-17T22:29:16.930Z,6.89
2023-02-17T22:31:44.249Z,6.83
2023-02-17T22:34:15.335Z,6.74
2023-02-17T22:36:42.592Z,6.73
2023-02-17T22:39:09.901Z,6.76
2023-02-17T22:41:38.768Z,6.76
2023-02-17T22:44:07.399Z,6.66
2023-02-17T22:46:35.220Z,6.66
2023-02-17T22:49:02.646Z,6.60
2023-02-17T22:51:39.045Z,6.61
2023-02-17T22:54:07.604Z,6.62
2023-02-17T22:56:35.143Z,6.61
2023-02-17T22:59:04.256Z,6.56
2023-02-17T23:01:34.912Z,6.49
2023-02-17T23:04:02.730Z,6.53
2023-02-17T23:06:37.354Z,6.42
2023-02-17T23:09:07.488Z,6.29
2023-02-17T23:11:51.031Z,6.28
2023-02-17T23:14:36.896Z,6.26
2023-02-17T23:17:13.220Z,6.13
2023-02-17T23:19:42.426Z,6.08
2023-02-17T23:22:16.197Z,6.16
2023-02-17T23:24:46.398Z,6.25
2023-02-17T23:27:14.489Z,6.26
2023-02-17T23:29:42.265Z,6.17
2023-02-17T23:32:09.924Z,6.03
2023-02-17T23:34:38.122Z,5.89
2023-02-17T23:37:05.273Z,5.83
2023-02-17T23:39:36.991Z,5.84
2023-02-17T23:42:04.284Z,5.73
2023-02-17T23:44:31.419Z,5.76
2023-02-17T23:46:58.649Z,5.80
2023-02-17T23:49:25.767Z,5.82
2023-02-17T23:51:53.338Z,5.75
2023-02-17T23:54:20.509Z,5.74
2023-02-17T23:56:47.706Z,5.70
2023-02-17T23:59:14.942Z,5.56
